This is the latest recevied weather packets stored in our database for station/object KI4NG. If no packets are shown the sender has not sent any weather packets the latest 10 day(s).
| Time | Temp. | Humidity | Pressure | Rain* | Wind** | Luminosity | Snow |
|---|---|---|---|---|---|---|---|
| 1778082772 | 17.22° C | 99% | 1012.9 hPa | 0 mm | - | 108 W/m² | - |
| 1778081644 | 17.22° C | 99% | 1012.7 hPa | 0 mm | - | 105 W/m² | - |
| 1778081341 | 17.22° C | 99% | 1012.6 hPa | 0 mm | - | 87 W/m² | - |
| 1778081038 | 17.22° C | 99% | 1012.5 hPa | 0 mm | - | 121 W/m² | - |
| 1778080737 | 17.22° C | 99% | 1012.4 hPa | 0 mm | - | 156 W/m² | - |
| 1778080433 | 17.22° C | 99% | 1011.7 hPa | 0 mm | - | 323 W/m² | - |
| 1778080131 | 17.22° C | 99% | 1011.5 hPa | 0 mm | - | 315 W/m² | - |
| 1778079827 | 17.22° C | 99% | 1011.4 hPa | 0 mm | - | 236 W/m² | - |
| 1778079524 | 16.67° C | 99% | 1011.3 hPa | 0 mm | - | 225 W/m² | - |
| 1778079220 | 16.67° C | 99% | 1011.5 hPa | 1.78 mm | - | 169 W/m² | - |
| 1778078918 | 16.67° C | 99% | 1011.4 hPa | 1.78 mm | - | 93 W/m² | - |
| 1778078614 | 16.67° C | 99% | 1011.8 hPa | 1.78 mm | - | 81 W/m² | - |
| 1778078313 | 16.67° C | 99% | 1012.3 hPa | 0 mm | - | 72 W/m² | - |
| 1778078009 | 16.67° C | 99% | 1012.6 hPa | 0 mm | - | 60 W/m² | - |
| 1778077708 | 16.67° C | 99% | 1012.6 hPa | 0 mm | - | 61 W/m² | - |
| 1778077405 | 16.67° C | 99% | 1012.5 hPa | 0 mm | - | 72 W/m² | - |
| 1778077104 | 16.67° C | 99% | 1012.5 hPa | 1.27 mm | - | 80 W/m² | - |
| 1778076801 | 16.67° C | 99% | 1012.5 hPa | 1.27 mm | - | 112 W/m² | - |
| 1778076499 | 16.67° C | 99% | 1012.8 hPa | 0 mm | - | 57 W/m² | - |
| 1778076195 | 16.67° C | 99% | 1012.4 hPa | 0 mm | - | 92 W/m² | - |
| 1778075893 | 16.67° C | 99% | 1012.6 hPa | 1.78 mm | - | 60 W/m² | - |
| 1778075589 | 16.67° C | 99% | 1012.3 hPa | 1.78 mm | - | 68 W/m² | - |
| 1778075286 | 16.67° C | 99% | 1012.3 hPa | 0 mm | - | 55 W/m² | - |
| 1778074982 | 16.67° C | 99% | 1012 hPa | 3.05 mm | - | 35 W/m² | - |
| 1778074679 | 16.67° C | 99% | 1012.3 hPa | 3.05 mm | - | 68 W/m² | - |
* Rain latest hour (hover to see other rain measurements)
** Current wind speed in m/s (hover to see current wind gust speed)